Time,TemperatureF,DewpointF,PressureIn,WindDirection,WindDirectionDegrees,WindSpeedMPH,WindSpeedGustMPH,Humidity,HourlyPrecipIn,Conditions,Clouds,dailyrainin,SoftwareType,DateUTC
2013-01-03 00:05:00,-1.0,-9.9,30.08,WNW,290,4.0,4.0,65,0.00,,,0.00,Wunderground v.1.15,2013-01-03 05:05:00,
2013-01-03 00:10:00,-0.9,-9.8,30.09,West,264,4.0,4.0,65,0.00,,,0.00,Wunderground v.1.15,2013-01-03 05:10:00,
2013-01-03 00:15:00,-0.9,-10.2,30.09,WSW,250,3.0,7.0,64,0.00,,,0.00,Wunderground v.1.15,2013-01-03 05:15:00,
2013-01-03 00:20:00,-0.8,-9.8,30.10,West,267,4.0,7.0,65,0.00,,,0.00,Wunderground v.1.15,2013-01-03 05:20:00,
2013-01-03 00:30:00,-0.9,-10.2,30.10,WSW,252,3.0,14.0,64,0.00,,,0.00,Wunderground v.1.15,2013-01-03 05:30:00,
2013-01-03 00:35:00,-0.9,-9.8,30.11,West,269,2.0,14.0,65,0.00,,,0.00,Wunderground v.1.15,2013-01-03 05:35:00,
2013-01-03 00:45:00,-1.3,-9.9,30.10,WNW,296,1.0,7.0,66,0.00,,,0.00,Wunderground v.1.15,2013-01-03 05:45:00,
2013-01-03 00:50:00,-1.4,-10.0,30.11,SW,221,2.0,2.0,66,0.00,,,0.00,Wunderground v.1.15,2013-01-03 05:50:00,
2013-01-03 01:00:00,-1.5,-10.1,30.11,WSW,244,3.0,3.0,66,0.00,,,0.00,Wunderground v.1.15,2013-01-03 06:00:00,
2013-01-03 01:05:00,-1.6,-9.9,30.11,West,259,2.0,3.0,67,0.00,,,0.00,Wunderground v.1.15,2013-01-03 06:05:00,
2013-01-03 01:15:00,-1.9,-10.2,30.10,WSW,254,1.0,1.0,67,0.00,,,0.00,Wunderground v.1.15,2013-01-03 06:15:00,
2013-01-03 01:20:00,-1.9,-9.9,30.10,West,275,3.0,3.0,68,0.00,,,0.00,Wunderground v.1.15,2013-01-03 06:20:00,
2013-01-03 01:25:00,-1.8,-10.1,30.10,NNW,345,3.0,3.0,67,0.00,,,0.00,Wunderground v.1.15,2013-01-03 06:25:00,
2013-01-03 01:35:00,-1.7,-10.0,30.12,SW,223,1.0,2.0,67,0.00,,,0.00,Wunderground v.1.15,2013-01-03 06:35:00,
2013-01-03 01:40:00,-1.8,-10.1,30.12,WNW,298,1.0,1.0,67,0.00,,,0.00,Wunderground v.1.15,2013-01-03 06:40:00,
2013-01-03 01:45:00,-1.8,-10.1,30.12,SSW,211,1.0,1.0,67,0.00,,,0.00,Wunderground v.1.15,2013-01-03 06:45:00,
2013-01-03 01:55:00,-1.7,-9.7,30.12,SW,222,2.0,3.0,68,0.00,,,0.00,Wunderground v.1.15,2013-01-03 06:55:00,
2013-01-03 02:05:00,-1.6,-9.6,30.12,SW,227,2.0,4.0,68,0.00,,,0.00,Wunderground v.1.15,2013-01-03 07:05:00,
2013-01-03 02:10:00,-1.6,-9.9,30.13,WSW,258,2.0,3.0,67,0.00,,,0.00,Wunderground v.1.15,2013-01-03 07:10:00,
2013-01-03 02:15:00,-1.6,-9.9,30.12,West,267,2.0,3.0,67,0.00,,,0.00,Wunderground v.1.15,2013-01-03 07:15:00,
2013-01-03 02:25:00,-1.4,-9.7,30.13,WSW,238,3.0,3.0,67,0.00,,,0.00,Wunderground v.1.15,2013-01-03 07:25:00,
2013-01-03 02:35:00,-1.5,-9.8,30.13,West,259,2.0,6.0,67,0.00,,,0.00,Wunderground v.1.15,2013-01-03 07:35:00,
2013-01-03 02:40:00,-1.4,-9.7,30.12,WSW,246,1.0,1.0,67,0.00,,,0.00,Wunderground v.1.15,2013-01-03 07:40:00,
2013-01-03 02:45:00,-1.3,-9.6,30.13,NE,46,1.0,1.0,67,0.00,,,0.00,Wunderground v.1.15,2013-01-03 07:45:00,
2013-01-03 02:55:00,-1.1,-9.4,30.12,ESE,121,2.0,2.0,67,0.00,,,0.00,Wunderground v.1.15,2013-01-03 07:55:00,
2013-01-03 03:05:00,-1.1,-9.4,30.11,SW,231,2.0,5.0,67,0.00,,,0.00,Wunderground v.1.15,2013-01-03 08:05:00,
2013-01-03 03:10:00,-1.3,-9.6,30.11,SW,219,2.0,2.0,67,0.00,,,0.00,Wunderground v.1.15,2013-01-03 08:10:00,
2013-01-03 03:15:00,-1.3,-9.6,30.11,WSW,246,2.0,2.0,67,0.00,,,0.00,Wunderground v.1.15,2013-01-03 08:15:00,
2013-01-03 03:25:00,-1.4,-9.4,30.11,WSW,244,2.0,4.0,68,0.00,,,0.00,Wunderground v.1.15,2013-01-03 08:25:00,
2013-01-03 03:30:00,-1.3,-9.3,30.11,WSW,255,2.0,4.0,68,0.00,,,0.00,Wunderground v.1.15,2013-01-03 08:30:00,
2013-01-03 03:35:00,-1.4,-9.4,30.10,NW,310,2.0,4.0,68,0.00,,,0.00,Wunderground v.1.15,2013-01-03 08:35:00,
2013-01-03 03:45:00,-1.6,-9.6,30.10,SW,230,2.0,5.0,68,0.00,,,0.00,Wunderground v.1.15,2013-01-03 08:45:00,
2013-01-03 03:55:00,-1.8,-9.5,30.10,WSW,246,2.0,4.0,69,0.00,,,0.00,Wunderground v.1.15,2013-01-03 08:55:00,
2013-01-03 04:00:00,-1.8,-9.5,30.10,WSW,241,3.0,3.0,69,0.00,,,0.00,Wunderground v.1.15,2013-01-03 09:00:00,
2013-01-03 04:10:00,-1.8,-9.5,30.10,SW,236,3.0,3.0,69,0.00,,,0.00,Wunderground v.1.15,2013-01-03 09:10:00,
2013-01-03 04:15:00,-1.8,-9.5,30.10,SW,232,3.0,3.0,69,0.00,,,0.00,Wunderground v.1.15,2013-01-03 09:15:00,
2013-01-03 04:25:00,-1.8,-9.5,30.09,WSW,252,3.0,3.0,69,0.00,,,0.00,Wunderground v.1.15,2013-01-03 09:25:00,
2013-01-03 04:30:00,-1.8,-9.5,30.09,WSW,252,2.0,3.0,69,0.00,,,0.00,Wunderground v.1.15,2013-01-03 09:30:00,
2013-01-03 04:35:00,-1.7,-9.4,30.08,WSW,254,2.0,3.0,69,0.00,,,0.00,Wunderground v.1.15,2013-01-03 09:35:00,
2013-01-03 04:45:00,-1.6,-9.3,30.09,SW,228,2.0,2.0,69,0.00,,,0.00,Wunderground v.1.15,2013-01-03 09:45:00,
2013-01-03 04:55:00,-1.9,-9.6,30.09,WSW,247,0.0,1.0,69,0.00,,,0.00,Wunderground v.1.15,2013-01-03 09:55:00,
2013-01-03 05:00:00,-2.1,-9.5,30.09,WSW,246,0.0,0.0,70,0.00,,,0.00,Wunderground v.1.15,2013-01-03 10:00:00,
2013-01-03 05:05:00,-2.2,-9.6,30.09,WSW,245,0.0,0.0,70,0.00,,,0.00,Wunderground v.1.15,2013-01-03 10:05:00,
2013-01-03 05:15:00,-1.8,-9.2,30.09,WSW,245,1.0,1.0,70,0.00,,,0.00,Wunderground v.1.15,2013-01-03 10:15:00,
2013-01-03 05:25:00,-1.7,-9.4,30.09,SW,229,2.0,3.0,69,0.00,,,0.00,Wunderground v.1.15,2013-01-03 10:25:00,
2013-01-03 05:35:00,-1.7,-9.1,30.09,WSW,246,2.0,2.0,70,0.00,,,0.00,Wunderground v.1.15,2013-01-03 10:35:00,
2013-01-03 05:45:00,-1.6,-9.0,30.10,SW,226,1.0,2.0,70,0.00,,,0.00,Wunderground v.1.15,2013-01-03 10:45:00,
2013-01-03 05:50:00,-1.3,-8.7,30.10,WSW,244,1.0,1.0,70,0.00,,,0.00,Wunderground v.1.15,2013-01-03 10:50:00,
2013-01-03 05:55:00,-1.3,-9.0,30.10,WSW,244,0.0,1.0,69,0.00,,,0.00,Wunderground v.1.15,2013-01-03 10:55:00,
2013-01-03 06:05:00,-2.4,-9.8,30.10,WSW,253,0.0,2.0,70,0.00,,,0.00,Wunderground v.1.15,2013-01-03 11:05:00,
2013-01-03 06:10:00,-3.1,-10.2,30.10,WSW,257,0.0,0.0,71,0.00,,,0.00,Wunderground v.1.15,2013-01-03 11:10:00,
2013-01-03 06:15:00,-3.2,-10.0,30.10,WSW,257,0.0,0.0,72,0.00,,,0.00,Wunderground v.1.15,2013-01-03 11:15:00,
2013-01-03 06:25:00,-3.2,-9.7,30.10,WSW,257,0.0,0.0,73,0.00,,,0.00,Wunderground v.1.15,2013-01-03 11:25:00,
2013-01-03 06:35:00,-3.0,-9.5,30.10,WSW,255,0.0,0.0,73,0.00,,,0.00,Wunderground v.1.15,2013-01-03 11:35:00,
2013-01-03 06:45:00,-2.5,-9.3,30.11,SSW,207,0.0,0.0,72,0.00,,,0.00,Wunderground v.1.15,2013-01-03 11:45:00,
2013-01-03 06:55:00,-2.2,-9.3,30.11,SW,221,0.0,1.0,71,0.00,,,0.00,Wunderground v.1.15,2013-01-03 11:55:00,
2013-01-03 07:05:00,-2.4,-9.5,30.12,WSW,244,0.0,1.0,71,0.00,,,0.00,Wunderground v.1.15,2013-01-03 12:05:00,
2013-01-03 07:10:00,-2.4,-9.5,30.12,SW,233,0.0,2.0,71,0.00,,,0.00,Wunderground v.1.15,2013-01-03 12:10:00,
2013-01-03 07:15:00,-2.3,-9.4,30.12,WSW,256,1.0,3.0,71,0.00,,,0.00,Wunderground v.1.15,2013-01-03 12:15:00,
2013-01-03 07:25:00,-2.0,-9.1,30.12,WSW,257,2.0,2.0,71,0.00,,,0.00,Wunderground v.1.15,2013-01-03 12:25:00,
2013-01-03 07:30:00,-1.8,-8.9,30.11,West,280,1.0,1.0,71,0.00,,,0.00,Wunderground v.1.15,2013-01-03 12:30:00,
2013-01-03 07:35:00,-1.7,-9.1,30.12,SW,232,1.0,3.0,70,0.00,,,0.00,Wunderground v.1.15,2013-01-03 12:35:00,
2013-01-03 07:45:00,-1.7,-9.1,30.11,SSW,213,2.0,2.0,70,0.00,,,0.00,Wunderground v.1.15,2013-01-03 12:45:00,
2013-01-03 07:50:00,-1.6,-9.0,30.11,WSW,254,2.0,2.0,70,0.00,,,0.00,Wunderground v.1.15,2013-01-03 12:50:00,
2013-01-03 08:00:00,-1.2,-8.6,30.10,WSW,240,2.0,2.0,70,0.00,,,0.00,Wunderground v.1.15,2013-01-03 13:00:00,
2013-01-03 08:05:00,-0.3,-7.8,30.11,ENE,65,2.0,2.0,70,0.00,,,0.00,Wunderground v.1.15,2013-01-03 13:05:00,
2013-01-03 08:15:00,0.8,-7.3,30.10,WSW,257,0.0,2.0,68,0.00,,,0.00,Wunderground v.1.15,2013-01-03 13:15:00,
2013-01-03 08:25:00,1.5,-6.9,30.10,West,279,0.0,0.0,67,0.00,,,0.00,Wunderground v.1.15,2013-01-03 13:25:00,
2013-01-03 08:30:00,1.6,-6.8,30.10,WSW,248,1.0,1.0,67,0.00,,,0.00,Wunderground v.1.15,2013-01-03 13:30:00,
2013-01-03 08:35:00,1.8,-6.6,30.09,WSW,246,1.0,4.0,67,0.00,,,0.00,Wunderground v.1.15,2013-01-03 13:35:00,
2013-01-03 08:45:00,2.5,-6.3,30.10,East,91,2.0,2.0,66,0.00,,,0.00,Wunderground v.1.15,2013-01-03 13:45:00,
2013-01-03 08:50:00,2.8,-6.0,30.10,NNW,331,1.0,1.0,66,0.00,,,0.00,Wunderground v.1.15,2013-01-03 13:50:00,
2013-01-03 08:55:00,3.0,-6.1,30.10,SW,225,1.0,2.0,65,0.00,,,0.00,Wunderground v.1.15,2013-01-03 13:55:00,
2013-01-03 09:05:00,3.4,-5.7,30.10,WSW,248,2.0,3.0,65,0.00,,,0.00,Wunderground v.1.15,2013-01-03 14:05:00,
2013-01-03 09:15:00,3.8,-5.4,30.10,WSW,244,2.0,2.0,65,0.00,,,0.00,Wunderground v.1.15,2013-01-03 14:15:00,
2013-01-03 09:20:00,4.3,-5.2,30.10,West,263,1.0,3.0,64,0.00,,,0.00,Wunderground v.1.15,2013-01-03 14:20:00,
2013-01-03 09:25:00,4.7,-5.1,30.09,WSW,238,1.0,4.0,63,0.00,,,0.00,Wunderground v.1.15,2013-01-03 14:25:00,
2013-01-03 09:35:00,5.6,-4.6,30.09,WNW,294,2.0,3.0,62,0.00,,,0.00,Wunderground v.1.15,2013-01-03 14:35:00,
2013-01-03 09:45:00,6.3,-4.3,30.10,West,265,3.0,3.0,61,0.00,,,0.00,Wunderground v.1.15,2013-01-03 14:45:00,
2013-01-03 09:50:00,6.9,-4.1,30.10,WSW,239,2.0,5.0,60,0.00,,,0.00,Wunderground v.1.15,2013-01-03 14:50:00,
2013-01-03 10:00:00,7.7,-3.7,30.10,WSW,241,3.0,3.0,59,0.00,,,0.00,Wunderground v.1.15,2013-01-03 15:00:00,
2013-01-03 10:05:00,8.2,-3.6,30.09,WNW,295,2.0,3.0,58,0.00,,,0.00,Wunderground v.1.15,2013-01-03 15:05:00,
2013-01-03 10:10:00,8.4,-3.4,30.10,West,277,3.0,3.0,58,0.00,,,0.00,Wunderground v.1.15,2013-01-03 15:10:00,
2013-01-03 10:15:00,8.8,-3.4,30.10,NW,312,3.0,6.0,57,0.00,,,0.00,Wunderground v.1.15,2013-01-03 15:15:00,
2013-01-03 10:25:00,9.9,-2.7,30.10,WSW,253,2.0,3.0,56,0.00,,,0.00,Wunderground v.1.15,2013-01-03 15:25:00,
2013-01-03 10:35:00,10.4,-2.6,30.10,WSW,258,2.0,5.0,55,0.00,,,0.00,Wunderground v.1.15,2013-01-03 15:35:00,
2013-01-03 10:40:00,10.5,-2.1,30.09,WSW,240,3.0,7.0,56,0.00,,,0.00,Wunderground v.1.15,2013-01-03 15:40:00,
2013-01-03 10:45:00,10.8,-2.2,30.09,SW,235,3.0,7.0,55,0.00,,,0.00,Wunderground v.1.15,2013-01-03 15:45:00,
2013-01-03 10:55:00,11.0,-2.4,30.09,West,281,3.0,3.0,54,0.00,,,0.00,Wunderground v.1.15,2013-01-03 15:55:00,
2013-01-03 11:05:00,12.0,-2.3,30.09,West,261,1.0,2.0,52,0.00,,,0.00,Wunderground v.1.15,2013-01-03 16:05:00,
2013-01-03 11:10:00,12.3,-1.6,30.09,West,261,1.0,1.0,53,0.00,,,0.00,Wunderground v.1.15,2013-01-03 16:10:00,
2013-01-03 11:20:00,12.7,-2.5,30.08,WSW,242,0.0,5.0,50,0.00,,,0.00,Wunderground v.1.15,2013-01-03 16:20:00,
2013-01-03 11:25:00,12.6,-2.1,30.08,West,263,1.0,5.0,51,0.00,,,0.00,Wunderground v.1.15,2013-01-03 16:25:00,
2013-01-03 11:35:00,12.0,-2.7,30.08,WSW,254,2.0,2.0,51,0.00,,,0.00,Wunderground v.1.15,2013-01-03 16:35:00,
2013-01-03 11:40:00,11.7,-2.6,30.07,SW,232,2.0,5.0,52,0.00,,,0.00,Wunderground v.1.15,2013-01-03 16:40:00,
2013-01-03 11:45:00,11.7,-2.2,30.07,West,265,3.0,5.0,53,0.00,,,0.00,Wunderground v.1.15,2013-01-03 16:45:00,
2013-01-03 11:55:00,12.1,-1.8,30.07,WSW,246,2.0,3.0,53,0.00,,,0.00,Wunderground v.1.15,2013-01-03 16:55:00,
2013-01-03 12:05:00,12.8,-1.5,30.07,SW,216,1.0,5.0,52,0.00,,,0.00,Wunderground v.1.15,2013-01-03 17:05:00,
2013-01-03 12:10:00,13.4,-1.4,30.07,WNW,292,1.0,1.0,51,0.00,,,0.00,Wunderground v.1.15,2013-01-03 17:10:00,
2013-01-03 12:15:00,13.9,-1.8,30.06,NW,321,1.0,1.0,49,0.00,,,0.00,Wunderground v.1.15,2013-01-03 17:15:00,
2013-01-03 12:25:00,13.9,-1.8,30.06,WSW,248,1.0,3.0,49,0.00,,,0.00,Wunderground v.1.15,2013-01-03 17:25:00,
2013-01-03 12:35:00,13.5,-1.7,30.06,WSW,245,2.0,3.0,50,0.00,,,0.00,Wunderground v.1.15,2013-01-03 17:35:00,
2013-01-03 12:45:00,13.4,-1.8,30.06,West,259,2.0,3.0,50,0.00,,,0.00,Wunderground v.1.15,2013-01-03 17:45:00,
2013-01-03 12:55:00,13.1,-2.1,30.06,WSW,250,2.0,2.0,50,0.00,,,0.00,Wunderground v.1.15,2013-01-03 17:55:00,
2013-01-03 13:00:00,13.1,-2.1,30.06,West,267,2.0,2.0,50,0.00,,,0.00,Wunderground v.1.15,2013-01-03 18:00:00,
2013-01-03 13:05:00,13.4,-1.8,30.06,SW,234,2.0,2.0,50,0.00,,,0.00,Wunderground v.1.15,2013-01-03 18:05:00,
2013-01-03 13:15:00,13.6,-1.6,30.05,WSW,251,2.0,2.0,50,0.00,,,0.00,Wunderground v.1.15,2013-01-03 18:15:00,
2013-01-03 13:20:00,13.8,-1.9,30.05,WSW,249,1.0,1.0,49,0.00,,,0.00,Wunderground v.1.15,2013-01-03 18:20:00,
2013-01-03 13:25:00,13.7,-2.0,30.05,WSW,244,1.0,1.0,49,0.00,,,0.00,Wunderground v.1.15,2013-01-03 18:25:00,
2013-01-03 13:35:00,13.8,-1.9,30.06,WSW,243,1.0,3.0,49,0.00,,,0.00,Wunderground v.1.15,2013-01-03 18:35:00,
2013-01-03 13:45:00,13.9,-1.8,30.05,WSW,257,1.0,5.0,49,0.00,,,0.00,Wunderground v.1.15,2013-01-03 18:45:00,
2013-01-03 13:50:00,14.2,-1.9,30.05,West,279,1.0,1.0,48,0.00,,,0.00,Wunderground v.1.15,2013-01-03 18:50:00,
2013-01-03 13:55:00,14.1,-2.0,30.04,West,267,0.0,1.0,48,0.00,,,0.00,Wunderground v.1.15,2013-01-03 18:55:00,
2013-01-03 14:05:00,14.3,-1.8,30.04,West,264,1.0,1.0,48,0.00,,,0.00,Wunderground v.1.15,2013-01-03 19:05:00,
2013-01-03 14:15:00,13.9,-2.2,30.04,West,266,1.0,1.0,48,0.00,,,0.00,Wunderground v.1.15,2013-01-03 19:15:00,
2013-01-03 14:55:00,13.0,-3.0,30.02,WSW,248,0.0,0.0,48,0.00,,,0.00,Wunderground v.1.15,2013-01-03 19:55:00,
2013-01-03 15:05:00,13.7,-2.8,30.03,WSW,248,1.0,1.0,47,0.00,,,0.00,Wunderground v.1.15,2013-01-03 20:05:00,
2013-01-03 15:15:00,14.1,-2.5,30.03,SW,229,1.0,1.0,47,0.00,,,0.00,Wunderground v.1.15,2013-01-03 20:15:00,
2013-01-03 15:20:00,14.1,-2.9,30.03,WSW,238,1.0,1.0,46,0.00,,,0.00,Wunderground v.1.15,2013-01-03 20:20:00,
2013-01-03 15:25:00,14.2,-2.8,30.02,WSW,238,0.0,1.0,46,0.00,,,0.00,Wunderground v.1.15,2013-01-03 20:25:00,
2013-01-03 15:35:00,14.0,-2.1,30.02,WSW,246,0.0,0.0,48,0.00,,,0.00,Wunderground v.1.15,2013-01-03 20:35:00,
2013-01-03 15:40:00,13.9,-2.7,30.03,WSW,246,0.0,0.0,47,0.00,,,0.00,Wunderground v.1.15,2013-01-03 20:40:00,
2013-01-03 15:45:00,13.9,-2.7,30.03,WSW,246,0.0,0.0,47,0.00,,,0.00,Wunderground v.1.15,2013-01-03 20:45:00,
2013-01-03 15:55:00,13.9,-2.7,30.02,WSW,249,0.0,1.0,47,0.00,,,0.00,Wunderground v.1.15,2013-01-03 20:55:00,
2013-01-03 16:00:00,13.7,-3.3,30.02,WSW,249,1.0,1.0,46,0.00,,,0.00,Wunderground v.1.15,2013-01-03 21:00:00,
2013-01-03 16:10:00,13.2,-2.9,30.02,WSW,249,0.0,0.0,48,0.00,,,0.00,Wunderground v.1.15,2013-01-03 21:10:00,
2013-01-03 16:15:00,12.8,-2.8,30.02,WSW,249,0.0,0.0,49,0.00,,,0.00,Wunderground v.1.15,2013-01-03 21:15:00,
2013-01-03 16:25:00,12.2,-2.9,30.02,WSW,249,0.0,0.0,50,0.00,,,0.00,Wunderground v.1.15,2013-01-03 21:25:00,
2013-01-03 16:30:00,11.9,-3.2,30.02,WSW,249,0.0,0.0,50,0.00,,,0.00,Wunderground v.1.15,2013-01-03 21:30:00,
2013-01-03 16:35:00,11.7,-3.0,30.02,WSW,249,0.0,0.0,51,0.00,,,0.00,Wunderground v.1.15,2013-01-03 21:35:00,
2013-01-03 16:45:00,11.2,-3.0,30.02,WSW,249,0.0,0.0,52,0.00,,,0.00,Wunderground v.1.15,2013-01-03 21:45:00,
2013-01-03 16:55:00,10.5,-2.9,30.02,WSW,249,0.0,0.0,54,0.00,,,0.00,Wunderground v.1.15,2013-01-03 21:55:00,
2013-01-03 17:05:00,10.2,-3.2,30.03,WSW,249,0.0,0.0,54,0.00,,,0.00,Wunderground v.1.15,2013-01-03 22:05:00,
2013-01-03 17:10:00,10.1,-3.3,30.03,WSW,249,0.0,0.0,54,0.00,,,0.00,Wunderground v.1.15,2013-01-03 22:10:00,
2013-01-03 17:15:00,9.9,-3.5,30.04,WSW,249,0.0,0.0,54,0.00,,,0.00,Wunderground v.1.15,2013-01-03 22:15:00,
2013-01-03 17:25:00,9.8,-3.2,30.04,WSW,249,0.0,0.0,55,0.00,,,0.00,Wunderground v.1.15,2013-01-03 22:25:00,
2013-01-03 17:30:00,9.7,-3.3,30.03,WSW,249,0.0,0.0,55,0.00,,,0.00,Wunderground v.1.15,2013-01-03 22:30:00,
2013-01-03 17:35:00,9.7,-3.3,30.03,WSW,249,0.0,0.0,55,0.00,,,0.00,Wunderground v.1.15,2013-01-03 22:35:00,
2013-01-03 17:45:00,9.5,-3.1,30.03,WSW,249,0.0,0.0,56,0.00,,,0.00,Wunderground v.1.15,2013-01-03 22:45:00,
2013-01-03 17:55:00,9.6,-2.6,30.03,WSW,249,0.0,0.0,57,0.00,,,0.00,Wunderground v.1.15,2013-01-03 22:55:00,
2013-01-03 18:00:00,9.5,-2.7,30.04,WSW,249,0.0,0.0,57,0.00,,,0.00,Wunderground v.1.15,2013-01-03 23:00:00,
2013-01-03 18:05:00,9.3,-2.9,30.04,WSW,249,0.0,0.0,57,0.00,,,0.00,Wunderground v.1.15,2013-01-03 23:05:00,
2013-01-03 18:15:00,8.9,-2.5,30.04,WSW,249,0.0,0.0,59,0.00,,,0.00,Wunderground v.1.15,2013-01-03 23:15:00,
2013-01-03 18:25:00,8.6,-3.2,30.04,WSW,249,0.0,0.0,58,0.00,,,0.00,Wunderground v.1.15,2013-01-03 23:25:00,
2013-01-03 18:30:00,8.5,-2.9,30.04,WSW,249,0.0,0.0,59,0.00,,,0.00,Wunderground v.1.15,2013-01-03 23:30:00,
2013-01-03 18:35:00,8.3,-2.7,30.04,WSW,249,0.0,0.0,60,0.00,,,0.00,Wunderground v.1.15,2013-01-03 23:35:00,
2013-01-03 18:45:00,8.1,-3.6,30.04,WSW,249,0.0,0.0,58,0.00,,,0.00,Wunderground v.1.15,2013-01-03 23:45:00,
2013-01-03 18:50:00,7.9,-3.5,30.04,WSW,249,0.0,0.0,59,0.00,,,0.00,Wunderground v.1.15,2013-01-03 23:50:00,
2013-01-03 18:55:00,7.8,-3.6,30.04,WSW,249,0.0,0.0,59,0.00,,,0.00,Wunderground v.1.15,2013-01-03 23:55:00,
2013-01-03 19:05:00,7.7,-3.7,30.04,WSW,249,0.0,0.0,59,0.00,,,0.00,Wunderground v.1.15,2013-01-04 00:05:00,
2013-01-03 19:15:00,7.4,-3.3,30.04,WSW,249,0.0,0.0,61,0.00,,,0.00,Wunderground v.1.15,2013-01-04 00:15:00,
2013-01-03 19:20:00,7.4,-3.6,30.04,WSW,249,0.0,0.0,60,0.00,,,0.00,Wunderground v.1.15,2013-01-04 00:20:00,
2013-01-03 19:25:00,7.7,-3.7,30.04,WSW,249,0.0,0.0,59,0.00,,,0.00,Wunderground v.1.15,2013-01-04 00:25:00,
2013-01-03 19:35:00,8.0,-3.7,30.04,WSW,249,0.0,0.0,58,0.00,,,0.00,Wunderground v.1.15,2013-01-04 00:35:00,
2013-01-03 19:45:00,7.9,-3.5,30.04,WSW,249,0.0,0.0,59,0.00,,,0.00,Wunderground v.1.15,2013-01-04 00:45:00,
2013-01-03 19:50:00,7.8,-3.6,30.04,WSW,249,0.0,0.0,59,0.00,,,0.00,Wunderground v.1.15,2013-01-04 00:50:00,
2013-01-03 20:00:00,8.0,-2.7,30.04,WSW,249,0.0,0.0,61,0.00,,,0.00,Wunderground v.1.15,2013-01-04 01:00:00,
2013-01-03 20:05:00,8.2,-3.2,30.03,WSW,249,0.0,0.0,59,0.00,,,0.00,Wunderground v.1.15,2013-01-04 01:05:00,
2013-01-03 20:10:00,8.3,-2.7,30.03,WSW,249,0.0,0.0,60,0.00,,,0.00,Wunderground v.1.15,2013-01-04 01:10:00,
2013-01-03 20:15:00,8.2,-2.8,30.03,WSW,249,0.0,0.0,60,0.00,,,0.00,Wunderground v.1.15,2013-01-04 01:15:00,
2013-01-03 20:25:00,8.0,-3.4,30.04,WSW,249,0.0,0.0,59,0.00,,,0.00,Wunderground v.1.15,2013-01-04 01:25:00,
2013-01-03 20:30:00,8.0,-3.4,30.04,WSW,249,0.0,0.0,59,0.00,,,0.00,Wunderground v.1.15,2013-01-04 01:30:00,
2013-01-03 20:40:00,7.9,-3.1,30.03,WSW,249,0.0,0.0,60,0.00,,,0.00,Wunderground v.1.15,2013-01-04 01:40:00,
2013-01-03 20:45:00,7.9,-2.4,30.03,WSW,249,0.0,0.0,62,0.00,,,0.00,Wunderground v.1.15,2013-01-04 01:45:00,
2013-01-03 20:55:00,7.7,-3.0,30.03,WSW,249,0.0,0.0,61,0.00,,,0.00,Wunderground v.1.15,2013-01-04 01:55:00,
2013-01-03 21:00:00,7.5,-2.8,30.03,WSW,249,0.0,0.0,62,0.00,,,0.00,Wunderground v.1.15,2013-01-04 02:00:00,
2013-01-03 21:05:00,7.5,-3.2,30.03,WSW,249,0.0,0.0,61,0.00,,,0.00,Wunderground v.1.15,2013-01-04 02:05:00,
2013-01-03 21:15:00,7.4,-3.6,30.03,WSW,249,0.0,0.0,60,0.00,,,0.00,Wunderground v.1.15,2013-01-04 02:15:00,
2013-01-03 21:20:00,7.4,-3.6,30.02,WSW,249,0.0,0.0,60,0.00,,,0.00,Wunderground v.1.15,2013-01-04 02:20:00,
2013-01-03 21:25:00,7.4,-3.3,30.02,WSW,249,0.0,0.0,61,0.00,,,0.00,Wunderground v.1.15,2013-01-04 02:25:00,
2013-01-03 21:35:00,7.7,-3.7,30.02,WSW,249,0.0,0.0,59,0.00,,,0.00,Wunderground v.1.15,2013-01-04 02:35:00,
2013-01-03 21:45:00,8.3,-3.5,30.02,WSW,249,0.0,0.0,58,0.00,,,0.00,Wunderground v.1.15,2013-01-04 02:45:00,
2013-01-03 21:50:00,8.2,-3.2,30.02,WSW,249,0.0,0.0,59,0.00,,,0.00,Wunderground v.1.15,2013-01-04 02:50:00,
2013-01-03 21:55:00,8.0,-3.4,30.02,WSW,249,0.0,0.0,59,0.00,,,0.00,Wunderground v.1.15,2013-01-04 02:55:00,
2013-01-03 22:05:00,8.0,-3.0,30.02,WSW,249,0.0,0.0,60,0.00,,,0.00,Wunderground v.1.15,2013-01-04 03:05:00,
2013-01-03 22:10:00,8.5,-1.9,30.02,WSW,249,0.0,0.0,62,0.00,,,0.00,Wunderground v.1.15,2013-01-04 03:10:00,
2013-01-03 22:15:00,8.8,-1.2,30.02,WSW,249,0.0,0.0,63,0.00,,,0.00,Wunderground v.1.15,2013-01-04 03:15:00,
2013-01-03 22:25:00,9.0,-0.1,30.01,WSW,249,0.0,0.0,66,0.00,,,0.00,Wunderground v.1.15,2013-01-04 03:25:00,
2013-01-03 22:35:00,8.3,-0.7,30.01,WSW,249,0.0,0.0,66,0.00,,,0.00,Wunderground v.1.15,2013-01-04 03:35:00,
2013-01-03 22:40:00,7.8,-0.9,30.01,WSW,249,0.0,0.0,67,0.00,,,0.00,Wunderground v.1.15,2013-01-04 03:40:00,
2013-01-03 22:45:00,7.5,-1.2,30.01,WSW,249,0.0,0.0,67,0.00,,,0.00,Wunderground v.1.15,2013-01-04 03:45:00,
2013-01-03 22:55:00,7.2,-1.5,30.01,WSW,249,0.0,0.0,67,0.00,,,0.00,Wunderground v.1.15,2013-01-04 03:55:00,
2013-01-03 23:05:00,7.5,-0.2,30.00,WSW,249,0.0,0.0,70,0.00,,,0.00,Wunderground v.1.15,2013-01-04 04:05:00,
2013-01-03 23:10:00,8.1,0.0,30.00,WSW,249,0.0,0.0,69,0.00,,,0.00,Wunderground v.1.15,2013-01-04 04:10:00,
2013-01-03 23:15:00,8.5,0.1,30.00,WSW,249,0.0,0.0,68,0.00,,,0.00,Wunderground v.1.15,2013-01-04 04:15:00,
2013-01-03 23:25:00,9.0,-0.1,29.99,WSW,249,0.0,0.0,66,0.00,,,0.00,Wunderground v.1.15,2013-01-04 04:25:00,
2013-01-03 23:30:00,9.0,-0.4,29.99,WSW,249,0.0,0.0,65,0.00,,,0.00,Wunderground v.1.15,2013-01-04 04:30:00,
2013-01-03 23:35:00,9.1,-0.3,29.99,WSW,249,0.0,0.0,65,0.00,,,0.00,Wunderground v.1.15,2013-01-04 04:35:00,
2013-01-03 23:45:00,9.4,-0.7,29.98,WSW,249,0.0,0.0,63,0.00,,,0.00,Wunderground v.1.15,2013-01-04 04:45:00,
2013-01-03 23:55:00,9.8,-0.3,29.98,WSW,249,0.0,0.0,63,0.00,,,0.00,Wunderground v.1.15,2013-01-04 04:55:00,